createdAt,value
2017-08-04T08:14:56.713Z,1015.38
2017-08-04T08:15:58.594Z,1015.40
2017-08-04T08:17:00.491Z,1015.44
2017-08-04T08:18:02.380Z,1015.47
2017-08-04T08:19:04.213Z,1015.45
2017-08-04T08:20:06.041Z,1015.45
2017-08-04T08:21:07.934Z,1015.52
2017-08-04T08:22:09.823Z,1015.58
2017-08-04T08:23:11.716Z,1015.61
2017-08-04T08:24:25.901Z,1015.61
2017-08-04T08:25:27.799Z,1015.59
2017-08-04T08:26:29.700Z,1015.50
2017-08-04T08:27:31.605Z,1015.45
2017-08-04T08:28:33.431Z,1015.39
2017-08-04T08:29:35.260Z,1015.37
2017-08-04T08:30:37.165Z,1015.37
2017-08-04T08:31:39.059Z,1015.31
2017-08-04T08:32:40.964Z,1015.39
2017-08-04T08:33:55.145Z,1015.44
2017-08-04T08:34:57.037Z,1015.47
2017-08-04T08:35:58.932Z,1015.50
2017-08-04T08:37:00.845Z,1015.53
2017-08-04T08:38:02.706Z,1015.56
2017-08-04T08:39:04.566Z,1015.60
2017-08-04T08:40:06.458Z,1015.59
2017-08-04T08:41:08.353Z,1015.52
2017-08-04T08:42:10.251Z,1015.45
2017-08-04T08:43:24.421Z,1015.35
2017-08-04T08:44:26.314Z,1015.30
2017-08-04T08:45:28.214Z,1015.29
2017-08-04T08:46:30.123Z,1015.24
2017-08-04T08:47:31.959Z,1015.27
2017-08-04T08:48:33.817Z,1015.36
2017-08-04T08:49:35.713Z,1015.48
2017-08-04T08:50:37.609Z,1015.47
2017-08-04T08:51:39.514Z,1015.46
2017-08-04T08:52:53.685Z,1015.44
2017-08-04T08:53:55.579Z,1015.42
2017-08-04T08:54:57.473Z,1015.34
2017-08-04T08:55:59.366Z,1015.20
2017-08-04T08:57:01.203Z,1015.23
2017-08-04T08:58:03.033Z,1015.11
2017-08-04T08:59:04.927Z,1015.16
2017-08-04T09:00:06.817Z,1015.17
2017-08-04T09:01:08.712Z,1015.22
2017-08-04T09:02:22.881Z,1015.36
2017-08-04T09:03:24.777Z,1015.42
2017-08-04T09:04:26.670Z,1015.54
2017-08-04T09:05:28.583Z,1015.45
2017-08-04T09:06:30.417Z,1015.38
2017-08-04T09:07:32.248Z,1015.20
2017-08-04T09:08:34.147Z,1015.22
2017-08-04T09:09:36.038Z,1015.14
2017-08-04T09:10:37.937Z,1015.16
2017-08-04T09:11:52.169Z,1015.10
2017-08-04T09:12:54.037Z,1015.15
2017-08-04T09:13:55.930Z,1015.19
2017-08-04T09:14:57.824Z,1015.19
2017-08-04T09:15:59.659Z,1015.17
2017-08-04T09:17:01.492Z,1015.23
2017-08-04T09:18:03.398Z,1015.22
2017-08-04T09:19:05.293Z,1015.27
2017-08-04T09:20:07.194Z,1015.24
2017-08-04T09:21:21.409Z,1015.22
2017-08-04T09:22:23.337Z,1015.30
2017-08-04T09:23:25.208Z,1015.28
2017-08-04T09:24:27.165Z,1015.26
2017-08-04T09:25:29.121Z,1015.23
2017-08-04T09:26:30.944Z,1015.29
2017-08-04T09:27:32.834Z,1015.38
2017-08-04T09:28:34.730Z,1015.42
2017-08-04T09:29:36.625Z,1015.47
2017-08-04T09:30:50.809Z,1015.50
2017-08-04T09:31:52.700Z,1015.46
2017-08-04T09:32:54.594Z,1015.45
2017-08-04T09:33:56.490Z,1015.53
2017-08-04T09:34:58.328Z,1015.52
2017-08-04T09:36:00.165Z,1015.57
2017-08-04T09:37:02.056Z,1015.57
2017-08-04T09:38:03.953Z,1015.62
2017-08-04T09:39:05.814Z,1015.60
2017-08-04T09:40:19.983Z,1015.54
2017-08-04T09:41:21.879Z,1015.38
2017-08-04T09:42:23.773Z,1015.35
2017-08-04T09:43:25.674Z,1015.32
2017-08-04T09:44:27.515Z,1015.27
2017-08-04T09:45:29.349Z,1015.31
2017-08-04T09:46:31.242Z,1015.38
2017-08-04T09:47:33.143Z,1015.36
2017-08-04T09:48:35.059Z,1015.52
2017-08-04T09:49:49.229Z,1015.59
2017-08-04T09:50:51.126Z,1015.63
2017-08-04T09:51:53.023Z,1015.57
2017-08-04T09:52:54.921Z,1015.52
2017-08-04T09:53:56.758Z,1015.52
2017-08-04T09:54:58.618Z,1015.56
2017-08-04T09:56:00.510Z,1015.63
2017-08-04T09:57:02.400Z,1015.54
2017-08-04T09:58:04.297Z,1015.48
2017-08-04T09:59:18.499Z,1015.42
2017-08-04T10:00:20.394Z,1015.32
2017-08-04T10:01:22.290Z,1015.34
2017-08-04T10:02:24.183Z,1015.36
2017-08-04T10:03:26.018Z,1015.43
2017-08-04T10:04:27.860Z,1015.38
2017-08-04T10:05:29.751Z,1015.38
2017-08-04T10:06:31.654Z,1015.37
2017-08-04T10:07:33.549Z,1015.33
2017-08-04T10:08:47.755Z,1015.23
2017-08-04T10:09:49.664Z,1015.26
2017-08-04T10:10:51.558Z,1015.19
2017-08-04T10:11:53.452Z,1015.16
2017-08-04T10:12:55.287Z,1015.15
2017-08-04T10:13:57.120Z,1015.21
2017-08-04T10:14:59.026Z,1015.25
2017-08-04T10:16:00.923Z,1015.27
2017-08-04T10:17:02.819Z,1015.31
2017-08-04T10:18:16.991Z,1015.32
2017-08-04T10:19:18.884Z,1015.42
2017-08-04T10:20:20.788Z,1015.43
2017-08-04T10:21:22.684Z,1015.46
2017-08-04T10:22:24.521Z,1015.47
2017-08-04T10:23:26.354Z,1015.49
2017-08-04T10:24:28.246Z,1015.49
2017-08-04T10:25:30.158Z,1015.44
2017-08-04T10:26:32.054Z,1015.43
2017-08-04T10:27:46.225Z,1015.46
2017-08-04T10:28:48.119Z,1015.38
2017-08-04T10:29:50.025Z,1015.36
2017-08-04T10:30:51.931Z,1015.44
2017-08-04T10:31:53.767Z,1015.40
2017-08-04T10:32:55.610Z,1015.50
2017-08-04T10:33:57.505Z,1015.44
2017-08-04T10:34:59.399Z,1015.38
2017-08-04T10:36:01.253Z,1015.40
2017-08-04T10:37:15.428Z,1015.26
2017-08-04T10:38:17.322Z,1015.24
2017-08-04T10:39:19.218Z,1015.25
2017-08-04T10:40:21.179Z,1015.25
2017-08-04T10:41:23.137Z,1015.26
2017-08-04T10:42:24.971Z,1015.36
2017-08-04T10:43:27.257Z,1015.32
2017-08-04T10:44:29.178Z,1015.33
2017-08-04T10:45:31.062Z,1015.35
2017-08-04T10:46:45.233Z,1015.42
2017-08-04T10:47:47.400Z,1015.34
2017-08-04T10:48:49.361Z,1015.33
2017-08-04T10:49:51.244Z,1015.39
2017-08-04T10:50:53.082Z,1015.40
2017-08-04T10:51:54.915Z,1015.48
2017-08-04T10:52:56.812Z,1015.37
2017-08-04T10:53:58.702Z,1015.36
2017-08-04T10:55:00.599Z,1015.40
2017-08-04T10:56:14.816Z,1015.37
2017-08-04T10:57:16.777Z,1015.40
2017-08-04T10:58:18.673Z,1015.35
2017-08-04T10:59:20.581Z,1015.34
2017-08-04T11:00:22.440Z,1015.37
2017-08-04T11:01:24.268Z,1015.47
2017-08-04T11:02:26.160Z,1015.49
2017-08-04T11:03:28.061Z,1015.54
2017-08-04T11:04:29.959Z,1015.53
2017-08-04T11:05:44.132Z,1015.53
2017-08-04T11:06:46.031Z,1015.56
2017-08-04T11:07:47.924Z,1015.54
2017-08-04T11:08:49.824Z,1015.47
2017-08-04T11:09:51.663Z,1015.47
2017-08-04T11:10:53.497Z,1015.49
2017-08-04T11:11:55.391Z,1015.49
2017-08-04T11:12:57.288Z,1015.43
2017-08-04T11:13:59.184Z,1015.38
2017-08-04T11:15:13.368Z,1015.41
2017-08-04T11:16:15.260Z,1015.38
2017-08-04T11:17:17.157Z,1015.33
2017-08-04T11:18:19.053Z,1015.21
2017-08-04T11:19:20.905Z,1015.09
2017-08-04T11:20:22.739Z,1015.06
2017-08-04T11:21:24.633Z,1015.00
2017-08-04T11:22:26.540Z,1015.00
2017-08-04T11:23:28.436Z,1015.02
2017-08-04T11:24:42.618Z,1015.09
2017-08-04T11:25:44.515Z,1015.09
2017-08-04T11:26:46.424Z,1015.10
2017-08-04T11:27:48.313Z,1015.07
2017-08-04T11:28:50.155Z,1015.11
2017-08-04T11:29:51.989Z,1015.16
2017-08-04T11:30:53.881Z,1015.18
2017-08-04T11:31:55.777Z,1015.08
2017-08-04T11:32:57.672Z,1015.02
2017-08-04T11:34:11.827Z,1014.91
2017-08-04T11:35:13.722Z,1014.86
2017-08-04T11:36:15.615Z,1014.99
2017-08-04T11:37:17.518Z,1015.10
2017-08-04T11:38:19.355Z,1015.19
2017-08-04T11:39:21.190Z,1015.15
2017-08-04T11:40:23.096Z,1015.00
2017-08-04T11:41:24.996Z,1014.93
2017-08-04T11:42:26.894Z,1014.99
2017-08-04T11:43:41.063Z,1015.15
2017-08-04T11:44:42.956Z,1015.20
2017-08-04T11:45:44.854Z,1015.21
2017-08-04T11:46:46.761Z,1015.23
2017-08-04T11:47:48.600Z,1015.22
2017-08-04T11:48:50.438Z,1015.15
2017-08-04T11:49:52.342Z,1015.12
2017-08-04T11:50:54.238Z,1015.11
2017-08-04T11:51:56.134Z,1015.08
2017-08-04T11:53:10.305Z,1015.07
2017-08-04T11:54:12.198Z,1015.14
2017-08-04T11:55:14.094Z,1015.16
2017-08-04T11:56:15.992Z,1015.16
2017-08-04T11:57:17.836Z,1015.14
2017-08-04T11:58:19.675Z,1015.05
2017-08-04T11:59:21.572Z,1014.91
2017-08-04T12:00:23.466Z,1014.81
2017-08-04T12:01:25.367Z,1014.81
2017-08-04T12:02:39.539Z,1014.88
2017-08-04T12:03:41.433Z,1014.86
2017-08-04T12:04:43.329Z,1014.88
2017-08-04T12:05:45.227Z,1014.91
2017-08-04T12:06:47.063Z,1014.93
2017-08-04T12:07:48.897Z,1014.96
2017-08-04T12:08:50.801Z,1014.97
2017-08-04T12:09:52.695Z,1015.02
2017-08-04T12:10:54.590Z,1015.02
2017-08-04T12:12:08.815Z,1014.95
2017-08-04T12:13:10.715Z,1014.90
2017-08-04T12:14:12.618Z,1014.93
2017-08-04T12:15:14.507Z,1014.98
2017-08-04T12:16:16.352Z,1015.01
2017-08-04T12:17:18.191Z,1015.03
2017-08-04T12:18:20.090Z,1014.99
2017-08-04T12:19:22.014Z,1014.93
2017-08-04T12:20:23.919Z,1014.83
2017-08-04T12:21:38.092Z,1014.82
2017-08-04T12:22:40.020Z,1014.83
2017-08-04T12:23:41.924Z,1014.81
2017-08-04T12:24:43.813Z,1014.71
2017-08-04T12:25:45.769Z,1014.73
2017-08-04T12:26:47.581Z,1014.79
2017-08-04T12:27:49.474Z,1014.86
2017-08-04T12:28:51.370Z,1014.92
2017-08-04T12:29:53.279Z,1014.92
2017-08-04T12:31:07.449Z,1014.87
2017-08-04T12:32:09.343Z,1014.85
2017-08-04T12:33:11.249Z,1014.92
2017-08-04T12:34:13.164Z,1014.95
2017-08-04T12:35:14.996Z,1014.87
2017-08-04T12:36:16.834Z,1014.91
2017-08-04T12:37:18.733Z,1014.96
2017-08-04T12:38:20.630Z,1014.95
2017-08-04T12:39:22.577Z,1015.00
2017-08-04T12:40:36.770Z,1014.91
2017-08-04T12:41:38.664Z,1014.87
2017-08-04T12:42:40.573Z,1014.77
2017-08-04T12:43:42.476Z,1014.70
2017-08-04T12:44:44.319Z,1014.74
2017-08-04T12:45:46.173Z,1014.69
2017-08-04T12:46:48.070Z,1014.73
2017-08-04T12:47:49.964Z,1014.73
2017-08-04T12:48:51.867Z,1014.70
2017-08-04T12:50:06.048Z,1014.68
2017-08-04T12:51:07.954Z,1014.66
2017-08-04T12:52:09.851Z,1014.68
2017-08-04T12:53:11.776Z,1014.73
2017-08-04T12:54:13.598Z,1014.74
2017-08-04T12:55:15.433Z,1014.59
2017-08-04T12:56:17.336Z,1014.55
2017-08-04T12:57:19.236Z,1014.54
2017-08-04T12:58:21.133Z,1014.57
2017-08-04T12:59:35.307Z,1014.57
2017-08-04T13:00:37.205Z,1014.53
2017-08-04T13:01:39.101Z,1014.66
2017-08-04T13:02:40.995Z,1014.66
2017-08-04T13:03:42.832Z,1014.68
2017-08-04T13:04:44.666Z,1014.80
2017-08-04T13:05:46.570Z,1014.86
2017-08-04T13:06:48.468Z,1014.87
2017-08-04T13:07:50.364Z,1014.86
2017-08-04T13:09:04.535Z,1014.88
2017-08-04T13:10:06.429Z,1014.86
2017-08-04T13:11:08.325Z,1014.92
2017-08-04T13:12:10.233Z,1014.95
2017-08-04T13:13:12.071Z,1014.84
2017-08-04T13:14:13.905Z,1014.81
2017-08-04T13:15:15.800Z,1014.75
2017-08-04T13:16:17.695Z,1014.72
2017-08-04T13:17:19.597Z,1014.75
2017-08-04T13:18:33.775Z,1014.75
2017-08-04T13:19:35.669Z,1014.72
2017-08-04T13:20:37.566Z,1014.70
2017-08-04T13:21:39.475Z,1014.69
2017-08-04T13:22:41.320Z,1014.71
2017-08-04T13:23:43.153Z,1014.72
2017-08-04T13:24:45.051Z,1014.69
2017-08-04T13:25:46.947Z,1014.62
2017-08-04T13:26:48.846Z,1014.62
2017-08-04T13:28:03.018Z,1014.55
2017-08-04T13:29:04.911Z,1014.48
2017-08-04T13:30:06.818Z,1014.56
2017-08-04T13:31:08.715Z,1014.51
2017-08-04T13:32:10.563Z,1014.62
2017-08-04T13:33:12.398Z,1014.63
2017-08-04T13:34:14.292Z,1014.60
2017-08-04T13:35:16.187Z,1014.62
2017-08-04T13:36:18.086Z,1014.60
2017-08-04T13:37:32.256Z,1014.61
2017-08-04T13:38:34.150Z,1014.59
2017-08-04T13:39:36.057Z,1014.66
2017-08-04T13:40:37.966Z,1014.62
2017-08-04T13:41:39.805Z,1014.56
2017-08-04T13:42:41.640Z,1014.59
2017-08-04T13:43:43.552Z,1014.58
2017-08-04T13:44:45.438Z,1014.61
2017-08-04T13:45:47.341Z,1014.55
2017-08-04T13:47:01.513Z,1014.52
2017-08-04T13:48:03.415Z,1014.48
2017-08-04T13:49:05.312Z,1014.49
2017-08-04T13:50:07.211Z,1014.50
2017-08-04T13:51:09.048Z,1014.57
2017-08-04T13:52:10.899Z,1014.61
2017-08-04T13:53:12.780Z,1014.66
2017-08-04T13:54:14.674Z,1014.61
2017-08-04T13:55:16.570Z,1014.60
2017-08-04T13:56:30.751Z,1014.71
2017-08-04T13:57:32.647Z,1014.74
2017-08-04T13:58:34.543Z,1014.66
2017-08-04T13:59:36.440Z,1014.63
2017-08-04T14:00:38.290Z,1014.57
2017-08-04T14:01:40.125Z,1014.56
2017-08-04T14:02:42.018Z,1014.55
2017-08-04T14:03:43.917Z,1014.53
2017-08-04T14:04:45.814Z,1014.52
2017-08-04T14:05:59.995Z,1014.51
2017-08-04T14:07:01.903Z,1014.48
2017-08-04T14:08:03.799Z,1014.49
2017-08-04T14:09:05.702Z,1014.46
2017-08-04T14:10:07.537Z,1014.49
2017-08-04T14:11:09.370Z,1014.46
2017-08-04T14:12:11.263Z,1014.42
2017-08-04T14:13:13.163Z,1014.41
2017-08-04T14:14:15.064Z,1014.41
2017-08-04T14:15:29.235Z,1014.42
2017-08-04T14:16:31.152Z,1014.49
2017-08-04T14:17:33.029Z,1014.48
2017-08-04T14:18:34.924Z,1014.47
2017-08-04T14:19:36.763Z,1014.50
2017-08-04T14:20:38.600Z,1014.50
2017-08-04T14:21:40.493Z,1014.47
2017-08-04T14:22:42.393Z,1014.47
2017-08-04T14:23:44.303Z,1014.43
2017-08-04T14:24:58.475Z,1014.43
2017-08-04T14:26:00.370Z,1014.43
2017-08-04T14:27:02.277Z,1014.48
2017-08-04T14:28:04.174Z,1014.46
2017-08-04T14:29:06.013Z,1014.39
2017-08-04T14:30:07.850Z,1014.33
2017-08-04T14:31:09.743Z,1014.27
2017-08-04T14:32:11.641Z,1014.30
2017-08-04T14:33:13.536Z,1014.25
2017-08-04T14:34:27.709Z,1014.21
2017-08-04T14:35:29.603Z,1014.26
2017-08-04T14:36:31.499Z,1014.24
2017-08-04T14:37:33.396Z,1014.27
2017-08-04T14:38:35.234Z,1014.28
2017-08-04T14:39:37.069Z,1014.23
2017-08-04T14:40:38.963Z,1014.22
2017-08-04T14:41:40.860Z,1014.30
2017-08-04T14:42:42.756Z,1014.30
2017-08-04T14:43:56.928Z,1014.29
2017-08-04T14:44:58.833Z,1014.33
2017-08-04T14:46:00.720Z,1014.32
2017-08-04T14:47:02.622Z,1014.40
2017-08-04T14:48:04.460Z,1014.45
2017-08-04T14:49:06.289Z,1014.53
2017-08-04T14:50:08.185Z,1014.48
2017-08-04T14:51:10.082Z,1014.42
2017-08-04T14:52:11.983Z,1014.38
2017-08-04T14:53:26.153Z,1014.44
2017-08-04T14:54:28.051Z,1014.43
2017-08-04T14:55:29.949Z,1014.42
2017-08-04T14:56:31.845Z,1014.40
2017-08-04T14:57:33.679Z,1014.42
2017-08-04T14:58:35.515Z,1014.43
2017-08-04T14:59:37.409Z,1014.43
2017-08-04T15:00:39.304Z,1014.48
2017-08-04T15:01:41.211Z,1014.35
2017-08-04T15:02:55.394Z,1014.35
2017-08-04T15:03:57.289Z,1014.34
2017-08-04T15:04:59.187Z,1014.34
2017-08-04T15:06:01.083Z,1014.33
2017-08-04T15:07:02.919Z,1014.28
2017-08-04T15:08:04.751Z,1014.36
2017-08-04T15:09:06.647Z,1014.34
2017-08-04T15:10:08.541Z,1014.30
2017-08-04T15:11:10.435Z,1014.25
2017-08-04T15:12:24.617Z,1014.19
2017-08-04T15:13:26.509Z,1014.18
2017-08-04T15:14:28.404Z,1014.13
2017-08-04T15:15:30.299Z,1014.12
2017-08-04T15:16:32.147Z,1014.04
2017-08-04T15:17:33.978Z,1014.02
2017-08-04T15:18:35.882Z,1013.98
2017-08-04T15:19:37.775Z,1013.99
2017-08-04T15:20:39.670Z,1013.97
2017-08-04T15:21:53.819Z,1013.98
2017-08-04T15:22:55.663Z,1014.03
2017-08-04T15:23:57.497Z,1014.01
2017-08-04T15:24:59.332Z,1014.00
2017-08-04T15:26:01.188Z,1014.01
2017-08-04T15:27:03.081Z,1013.97
2017-08-04T15:28:04.973Z,1013.93
2017-08-04T15:29:06.816Z,1013.87
2017-08-04T15:30:08.648Z,1013.85
2017-08-04T15:31:22.815Z,1013.78
2017-08-04T15:32:24.707Z,1013.78
2017-08-04T15:33:26.601Z,1013.81
2017-08-04T15:34:28.508Z,1013.84
2017-08-04T15:35:30.346Z,1013.79
2017-08-04T15:36:32.177Z,1013.81
2017-08-04T15:37:34.068Z,1013.85
2017-08-04T15:38:35.964Z,1013.90
2017-08-04T15:39:37.857Z,1013.85
2017-08-04T15:40:52.028Z,1013.92
2017-08-04T15:41:53.918Z,1014.03
2017-08-04T15:42:55.811Z,1013.87
2017-08-04T15:43:57.703Z,1013.92
2017-08-04T15:44:59.549Z,1014.00
2017-08-04T15:46:01.394Z,1013.97
2017-08-04T15:47:03.282Z,1013.90
2017-08-04T15:48:05.132Z,1013.98
2017-08-04T15:49:06.987Z,1013.92
2017-08-04T15:50:21.157Z,1013.87
2017-08-04T15:51:23.047Z,1013.93
2017-08-04T15:52:24.951Z,1013.85
2017-08-04T15:53:26.848Z,1013.89
2017-08-04T15:54:28.683Z,1013.92
2017-08-04T15:55:30.513Z,1013.98
2017-08-04T15:56:32.404Z,1014.07
2017-08-04T15:57:34.300Z,1014.12
2017-08-04T15:58:36.193Z,1014.06
2017-08-04T15:59:50.358Z,1013.98
2017-08-04T16:00:52.244Z,1013.94
2017-08-04T16:01:54.136Z,1013.85
2017-08-04T16:02:56.038Z,1013.84
2017-08-04T16:03:57.883Z,1013.87
2017-08-04T16:04:59.714Z,1013.88
2017-08-04T16:06:01.604Z,1013.91
2017-08-04T16:07:03.497Z,1013.97
2017-08-04T16:08:05.390Z,1013.95
2017-08-04T16:09:19.560Z,1013.97
2017-08-04T16:10:21.451Z,1013.90
2017-08-04T16:11:23.343Z,1013.90
2017-08-04T16:12:25.249Z,1013.91
2017-08-04T16:13:27.081Z,1013.93
2017-08-04T16:14:28.911Z,1013.93
2017-08-04T16:15:30.802Z,1013.89
2017-08-04T16:16:32.694Z,1013.93
2017-08-04T16:17:34.599Z,1013.94
2017-08-04T16:18:48.818Z,1013.92
2017-08-04T16:19:50.711Z,1013.91
2017-08-04T16:20:52.607Z,1013.93
2017-08-04T16:21:54.501Z,1013.89
2017-08-04T16:22:56.337Z,1013.85
2017-08-04T16:23:58.167Z,1013.86
2017-08-04T16:25:00.059Z,1013.82
2017-08-04T16:26:01.962Z,1013.83
2017-08-04T16:27:03.856Z,1013.85
2017-08-04T16:28:18.020Z,1013.80
2017-08-04T16:29:19.914Z,1013.82
2017-08-04T16:30:21.807Z,1013.81
2017-08-04T16:31:23.702Z,1013.77
2017-08-04T16:32:25.537Z,1013.83
2017-08-04T16:33:27.366Z,1013.89
2017-08-04T16:34:29.268Z,1013.92
2017-08-04T16:35:31.162Z,1013.93
2017-08-04T16:36:33.069Z,1013.94
2017-08-04T16:37:47.239Z,1013.99
2017-08-04T16:38:49.130Z,1013.97
2017-08-04T16:39:51.025Z,1013.99
2017-08-04T16:40:52.919Z,1014.00
2017-08-04T16:41:54.754Z,1014.00
2017-08-04T16:42:56.581Z,1014.05
2017-08-04T16:43:58.483Z,1014.05
2017-08-04T16:45:00.377Z,1014.02
2017-08-04T16:46:02.280Z,1014.03
2017-08-04T16:47:16.446Z,1014.03
2017-08-04T16:48:18.339Z,1013.98
2017-08-04T16:49:20.232Z,1013.99
2017-08-04T16:50:22.126Z,1013.97
2017-08-04T16:51:23.962Z,1013.97
2017-08-04T16:52:25.789Z,1014.01
2017-08-04T16:53:27.680Z,1014.00
2017-08-04T16:54:29.571Z,1014.04
2017-08-04T16:55:31.465Z,1014.06
2017-08-04T16:56:45.615Z,1014.12
2017-08-04T16:57:47.444Z,1014.14
2017-08-04T16:58:49.347Z,1014.14
2017-08-04T16:59:51.242Z,1014.12
2017-08-04T17:00:53.148Z,1014.17
2017-08-04T17:01:54.982Z,1014.20
2017-08-04T17:02:56.819Z,1014.18
2017-08-04T17:03:58.710Z,1014.20
2017-08-04T17:05:00.607Z,1014.19
2017-08-04T17:06:14.833Z,1014.18
2017-08-04T17:07:16.732Z,1014.24
2017-08-04T17:08:18.633Z,1014.23
2017-08-04T17:09:20.527Z,1014.19
2017-08-04T17:10:22.362Z,1014.24
2017-08-04T17:11:24.193Z,1014.18
2017-08-04T17:12:26.086Z,1014.16
2017-08-04T17:13:27.980Z,1014.13
2017-08-04T17:14:29.872Z,1014.14
2017-08-04T17:15:44.044Z,1014.12
2017-08-04T17:16:45.937Z,1014.06
2017-08-04T17:17:47.829Z,1014.01
2017-08-04T17:18:49.726Z,1014.05
2017-08-04T17:19:51.572Z,1014.03
2017-08-04T17:20:53.406Z,1014.05
2017-08-04T17:21:55.297Z,1014.08
2017-08-04T17:22:57.189Z,1014.11
2017-08-04T17:23:59.081Z,1014.08
2017-08-04T17:25:13.260Z,1014.06
2017-08-04T17:26:15.156Z,1014.09
2017-08-04T17:27:17.047Z,1014.11
2017-08-04T17:28:18.941Z,1014.11
2017-08-04T17:29:20.774Z,1014.14
2017-08-04T17:30:22.605Z,1014.20
2017-08-04T17:31:24.498Z,1014.19
2017-08-04T17:32:26.391Z,1014.21
2017-08-04T17:33:28.287Z,1014.23
2017-08-04T17:34:42.458Z,1014.23
2017-08-04T17:35:44.351Z,1014.28
2017-08-04T17:36:46.249Z,1014.32
2017-08-04T17:37:48.146Z,1014.31
2017-08-04T17:38:49.984Z,1014.34
2017-08-04T17:39:51.823Z,1014.32
2017-08-04T17:40:53.709Z,1014.29
2017-08-04T17:41:55.605Z,1014.30
2017-08-04T17:42:57.493Z,1014.26
2017-08-04T17:44:11.673Z,1014.28
2017-08-04T17:45:13.563Z,1014.22
2017-08-04T17:46:15.896Z,1014.25
2017-08-04T17:47:18.551Z,1014.26
2017-08-04T17:48:20.887Z,1014.30
2017-08-04T17:49:23.346Z,1014.31
2017-08-04T17:50:25.691Z,1014.33
2017-08-04T17:51:28.105Z,1014.35
2017-08-04T17:52:30.574Z,1014.37
2017-08-04T17:53:45.303Z,1014.36
2017-08-04T17:54:47.724Z,1014.41
2017-08-04T17:55:50.290Z,1014.41
2017-08-04T17:56:52.713Z,1014.43
2017-08-04T17:57:55.108Z,1014.45
2017-08-04T17:58:57.461Z,1014.46
2017-08-04T17:59:59.873Z,1014.45
2017-08-04T18:01:02.289Z,1014.46
2017-08-04T18:02:04.544Z,1014.43
2017-08-04T18:03:19.593Z,1014.46
2017-08-04T18:04:22.332Z,1014.45
2017-08-04T18:05:24.746Z,1014.46
2017-08-04T18:06:27.105Z,1014.51
2017-08-04T18:07:29.436Z,1014.50
2017-08-04T18:08:31.854Z,1014.53
2017-08-04T18:09:34.183Z,1014.49
2017-08-04T18:10:36.519Z,1014.49
2017-08-04T18:11:38.852Z,1014.52
2017-08-04T18:12:53.531Z,1014.51
2017-08-04T18:13:55.937Z,1014.49
2017-08-04T18:14:58.227Z,1014.51
2017-08-04T18:16:00.639Z,1014.50
2017-08-04T18:17:02.983Z,1014.48
2017-08-04T18:18:05.332Z,1014.52
2017-08-04T18:19:07.810Z,1014.54
2017-08-04T18:20:10.432Z,1014.49
2017-08-04T18:21:12.810Z,1014.50
2017-08-04T18:22:27.480Z,1014.52
2017-08-04T18:23:29.855Z,1014.49
2017-08-04T18:24:32.306Z,1014.46
2017-08-04T18:25:34.711Z,1014.46
2017-08-04T18:26:37.074Z,1014.46
2017-08-04T18:27:39.380Z,1014.46
2017-08-04T18:28:41.759Z,1014.53
2017-08-04T18:29:44.162Z,1014.52
2017-08-04T18:30:46.587Z,1014.49
2017-08-04T18:32:01.448Z,1014.52
2017-08-04T18:33:04.057Z,1014.53
2017-08-04T18:34:06.451Z,1014.59
2017-08-04T18:35:09.285Z,1014.58
2017-08-04T18:36:11.586Z,1014.60
2017-08-04T18:37:13.968Z,1014.61
2017-08-04T18:38:16.296Z,1014.67
2017-08-04T18:39:18.658Z,1014.69
2017-08-04T18:40:21.042Z,1014.73
2017-08-04T18:41:35.784Z,1014.76
2017-08-04T18:42:38.192Z,1014.77
2017-08-04T18:43:40.579Z,1014.73
2017-08-04T18:44:42.962Z,1014.77
2017-08-04T18:45:45.341Z,1014.79
2017-08-04T18:46:47.597Z,1014.78
2017-08-04T18:47:49.957Z,1014.83
2017-08-04T18:48:52.280Z,1014.87
2017-08-04T18:49:54.601Z,1014.91
2017-08-04T18:51:09.271Z,1014.94
2017-08-04T18:52:11.589Z,1014.92
2017-08-04T18:53:13.952Z,1014.90
2017-08-04T18:54:16.372Z,1014.93
2017-08-04T18:55:18.811Z,1014.96
2017-08-04T18:56:21.166Z,1015.00
2017-08-04T18:57:23.612Z,1015.05
2017-08-04T18:58:25.992Z,1015.05
2017-08-04T18:59:28.355Z,1015.08
2017-08-04T19:00:43.080Z,1015.11
2017-08-04T19:01:45.490Z,1015.13
2017-08-04T19:02:47.888Z,1015.10
2017-08-04T19:03:50.216Z,1015.14
2017-08-04T19:04:52.474Z,1015.12
2017-08-04T19:05:54.736Z,1015.11
2017-08-04T19:06:57.091Z,1015.17
2017-08-04T19:07:59.414Z,1015.12
2017-08-04T19:09:01.951Z,1015.12
2017-08-04T19:10:16.590Z,1015.15
2017-08-04T19:11:18.981Z,1015.16
2017-08-04T19:12:21.230Z,1015.15
2017-08-04T19:13:23.740Z,1015.16
2017-08-04T19:14:26.038Z,1015.22
2017-08-04T19:15:28.365Z,1015.22
2017-08-04T19:16:30.879Z,1015.23
2017-08-04T19:17:33.490Z,1015.23
2017-08-04T19:18:35.820Z,1015.24
2017-08-04T19:19:50.540Z,1015.25
2017-08-04T19:20:52.915Z,1015.27
2017-08-04T19:21:55.311Z,1015.29
2017-08-04T19:22:57.699Z,1015.27
2017-08-04T19:24:00.003Z,1015.29
2017-08-04T19:25:01.899Z,1015.28
2017-08-04T19:26:04.160Z,1015.34
2017-08-04T19:27:06.427Z,1015.35
2017-08-04T19:28:08.700Z,1015.38
2017-08-04T19:29:23.349Z,1015.35
2017-08-04T19:30:25.670Z,1015.35
2017-08-04T19:31:27.987Z,1015.36
2017-08-04T19:32:30.311Z,1015.37
2017-08-04T19:33:32.391Z,1015.38
2017-08-04T19:34:34.658Z,1015.42
2017-08-04T19:35:37.063Z,1015.41
2017-08-04T19:36:39.128Z,1015.42
2017-08-04T19:37:41.509Z,1015.42
2017-08-04T19:38:56.242Z,1015.44
2017-08-04T19:39:58.559Z,1015.46
2017-08-04T19:41:00.879Z,1015.46
2017-08-04T19:42:03.307Z,1015.47
2017-08-04T19:43:05.597Z,1015.45
2017-08-04T19:44:07.703Z,1015.47
2017-08-04T19:45:10.087Z,1015.47
2017-08-04T19:46:12.433Z,1015.47
2017-08-04T19:47:14.749Z,1015.48
2017-08-04T19:48:29.433Z,1015.47
2017-08-04T19:49:32.003Z,1015.46
2017-08-04T19:50:34.386Z,1015.50
2017-08-04T19:51:36.778Z,1015.49
2017-08-04T19:52:39.015Z,1015.46
2017-08-04T19:53:41.276Z,1015.55
2017-08-04T19:54:43.659Z,1015.52
2017-08-04T19:55:45.974Z,1015.52
2017-08-04T19:56:47.871Z,1015.49
2017-08-04T19:58:02.029Z,1015.52
2017-08-04T19:59:03.911Z,1015.56
2017-08-04T20:00:05.800Z,1015.57
2017-08-04T20:01:07.687Z,1015.57
2017-08-04T20:02:09.532Z,1015.57
2017-08-04T20:03:11.375Z,1015.57
2017-08-04T20:04:13.275Z,1015.57
2017-08-04T20:05:15.161Z,1015.57
2017-08-04T20:06:17.045Z,1015.59
2017-08-04T20:07:31.216Z,1015.59
2017-08-04T20:08:33.103Z,1015.56
2017-08-04T20:09:34.988Z,1015.58
2017-08-04T20:10:36.875Z,1015.55
2017-08-04T20:11:38.701Z,1015.60
2017-08-04T20:12:40.538Z,1015.61
2017-08-04T20:13:42.437Z,1015.61
2017-08-04T20:14:44.322Z,1015.61
2017-08-04T20:15:46.209Z,1015.63
2017-08-04T20:17:00.389Z,1015.68
2017-08-04T20:18:02.276Z,1015.69
2017-08-04T20:19:04.163Z,1015.72
2017-08-04T20:20:06.051Z,1015.73
2017-08-04T20:21:07.878Z,1015.72
2017-08-04T20:22:09.701Z,1015.70
2017-08-04T20:23:11.590Z,1015.72
2017-08-04T20:24:13.473Z,1015.75
2017-08-04T20:25:15.362Z,1015.69
2017-08-04T20:26:29.601Z,1015.76
2017-08-04T20:27:31.485Z,1015.77
2017-08-04T20:28:33.369Z,1015.79
2017-08-04T20:29:35.258Z,1015.78
2017-08-04T20:30:37.084Z,1015.78
2017-08-04T20:31:38.906Z,1015.79
2017-08-04T20:32:40.800Z,1015.77
2017-08-04T20:33:42.689Z,1015.78
2017-08-04T20:34:44.578Z,1015.80
2017-08-04T20:35:58.735Z,1015.80
2017-08-04T20:37:00.621Z,1015.80
2017-08-04T20:38:02.506Z,1015.81
2017-08-04T20:39:04.415Z,1015.84
2017-08-04T20:40:06.242Z,1015.87
2017-08-04T20:41:08.074Z,1015.86
2017-08-04T20:42:09.959Z,1015.86
2017-08-04T20:43:11.844Z,1015.90
2017-08-04T20:44:13.731Z,1015.85
2017-08-04T20:45:27.886Z,1015.84
2017-08-04T20:46:29.769Z,1015.87
2017-08-04T20:47:31.660Z,1015.83
2017-08-04T20:48:33.558Z,1015.87
2017-08-04T20:49:35.385Z,1015.93
2017-08-04T20:50:37.217Z,1015.89
2017-08-04T20:51:39.114Z,1015.87
2017-08-04T20:52:40.999Z,1015.90
2017-08-04T20:53:42.991Z,1015.96
2017-08-04T20:54:57.274Z,1015.99
2017-08-04T20:55:59.211Z,1015.98
2017-08-04T20:57:01.170Z,1015.96
2017-08-04T20:58:03.138Z,1016.00
2017-08-04T20:59:04.995Z,1016.06
2017-08-04T21:00:06.953Z,1016.02